Time;durP1;ratioP1;P1;durP2;ratioP2;P2;SDS_P1;SDS_P2;PMS_P1;PMS_P2;Temp;Humidity;BMP_temperature;BMP_pressure;BME280_temperature;BME280_humidity;BME280_pressure;Samples;Min_cycle;Max_cycle;Signal;HPM_P1;HPM_P2
2024/03/02 00:00:58;;;;;;;12.33;11.07;;;8.80;99.90;;;;;;5096486;28;20169;-72
2024/03/02 00:03:24;;;;;;;14.53;13.03;;;8.80;99.90;;;;;;5096274;28;20192;-72
2024/03/02 00:05:53;;;;;;;12.40;11.10;;;8.80;99.90;;;;;;5096335;28;20159;-72
2024/03/02 00:08:25;;;;;;;15.40;11.77;;;8.90;99.90;;;;;;5096510;28;20404;-71
2024/03/02 00:10:52;;;;;;;13.43;12.07;;;8.90;99.90;;;;;;5097062;28;20402;-71
2024/03/02 00:13:22;;;;;;;13.30;12.00;;;9.00;99.90;;;;;;5096383;28;20426;-71
2024/03/02 00:15:53;;;;;;;15.57;12.80;;;9.00;99.90;;;;;;5076163;28;20380;-71
2024/03/02 00:18:20;;;;;;;14.77;12.53;;;8.90;99.90;;;;;;5075942;28;20817;-71
2024/03/02 00:20:46;;;;;;;13.50;12.03;;;8.80;99.90;;;;;;5084826;28;20414;-71
2024/03/02 00:23:15;;;;;;;13.10;11.70;;;8.80;99.90;;;;;;5095888;28;20439;-71
2024/03/02 00:25:55;;;;;;;13.20;11.87;;;8.70;99.90;;;;;;5095999;28;20409;-71
2024/03/02 00:28:29;;;;;;;14.43;11.10;;;8.60;99.90;;;;;;5095945;28;20909;-71
2024/03/02 00:31:14;;;;;;;13.10;11.70;;;8.70;99.90;;;;;;5096020;28;20396;-71
2024/03/02 00:33:42;;;;;;;16.50;13.20;;;8.70;99.90;;;;;;5095818;28;20571;-71
2024/03/02 00:36:08;;;;;;;12.37;11.17;;;8.70;99.90;;;;;;5096090;28;20769;-71
2024/03/02 00:38:40;;;;;;;13.00;11.70;;;8.70;99.90;;;;;;5095728;28;20431;-71
2024/03/02 00:41:07;;;;;;;13.63;11.23;;;8.80;99.90;;;;;;5095868;28;20388;-71
2024/03/02 00:43:45;;;;;;;12.90;11.50;;;8.70;99.90;;;;;;5095615;28;20847;-71
2024/03/02 00:46:16;;;;;;;13.40;12.00;;;8.60;99.90;;;;;;5095659;28;20785;-71
2024/03/02 00:48:56;;;;;;;10.93;9.83;;;8.40;99.90;;;;;;5095684;28;20379;-71
2024/03/02 00:51:26;;;;;;;11.37;10.23;;;8.30;99.90;;;;;;5095550;28;20452;-71
2024/03/02 00:53:55;;;;;;;12.33;11.03;;;8.40;99.90;;;;;;5095482;28;20496;-71
2024/03/02 00:56:21;;;;;;;12.90;11.10;;;8.40;99.90;;;;;;5095834;28;20403;-71
2024/03/02 00:58:47;;;;;;;10.77;9.60;;;8.40;99.90;;;;;;5095698;28;20403;-71
2024/03/02 01:01:13;;;;;;;12.17;10.70;;;8.40;99.90;;;;;;5082428;28;20915;-71
2024/03/02 01:03:41;;;;;;;10.87;9.67;;;8.30;99.90;;;;;;5075681;28;20185;-71
2024/03/02 01:06:07;;;;;;;15.63;11.23;;;8.30;99.90;;;;;;5075567;28;20408;-71
2024/03/02 01:08:33;;;;;;;14.57;10.83;;;8.30;99.90;;;;;;5074951;28;20392;-71
2024/03/02 01:10:59;;;;;;;13.00;11.17;;;8.30;99.90;;;;;;5086104;28;20979;-71
2024/03/02 01:13:24;;;;;;;14.47;12.20;;;8.30;99.90;;;;;;5094919;28;20517;-71
2024/03/02 01:15:50;;;;;;;12.40;10.37;;;8.20;99.90;;;;;;5094947;28;20530;-71
2024/03/02 01:18:16;;;;;;;10.40;9.30;;;8.30;99.90;;;;;;5095221;28;20180;-71
2024/03/02 01:20:41;;;;;;;12.60;10.90;;;8.40;99.90;;;;;;5094840;28;20414;-71
2024/03/02 01:23:07;;;;;;;13.30;11.10;;;8.40;99.90;;;;;;5094903;28;20232;-71
2024/03/02 01:25:32;;;;;;;17.43;12.40;;;8.40;99.90;;;;;;5093975;28;20650;-71
2024/03/02 01:27:58;;;;;;;12.27;10.97;;;8.40;99.90;;;;;;5095087;28;20197;-71
2024/03/02 01:30:23;;;;;;;12.77;11.10;;;8.40;99.90;;;;;;5088986;28;20181;-71
2024/03/02 01:32:49;;;;;;;11.10;9.03;;;8.40;99.90;;;;;;5074852;28;20202;-71
2024/03/02 01:35:15;;;;;;;12.00;10.57;;;8.40;99.90;;;;;;5074762;28;20190;-71
2024/03/02 01:37:41;;;;;;;11.17;10.07;;;8.40;99.90;;;;;;5075036;28;20212;-71
2024/03/02 01:40:09;;;;;;;10.97;9.30;;;8.40;99.90;;;;;;5078768;28;20606;-71
2024/03/02 01:42:38;;;;;;;13.43;11.80;;;8.40;99.90;;;;;;5095168;28;20402;-71
2024/03/02 01:45:08;;;;;;;12.27;10.90;;;8.30;99.90;;;;;;5091777;28;20408;-72
2024/03/02 01:47:34;;;;;;;12.37;11.17;;;8.20;99.90;;;;;;5097989;28;20399;-72
2024/03/02 01:50:00;;;;;;;11.87;10.60;;;8.10;99.90;;;;;;5095790;28;20479;-72
2024/03/02 01:52:27;;;;;;;12.83;10.67;;;8.00;99.90;;;;;;5079106;28;20407;-72
2024/03/02 01:54:53;;;;;;;14.23;11.97;;;7.90;99.90;;;;;;5075394;28;20831;-73
2024/03/02 01:57:19;;;;;;;11.00;9.87;;;7.70;99.90;;;;;;5075625;28;20410;-72
2024/03/02 01:59:47;;;;;;;12.07;10.30;;;7.70;99.90;;;;;;5075321;28;20515;-72
2024/03/02 02:02:13;;;;;;;12.37;11.07;;;7.50;99.90;;;;;;5095073;28;20398;-72
2024/03/02 02:04:39;;;;;;;12.97;11.13;;;7.40;99.90;;;;;;5094489;28;20526;-72
2024/03/02 02:07:06;;;;;;;12.90;11.07;;;7.30;99.90;;;;;;5095258;28;20805;-72
2024/03/02 02:09:32;;;;;;;12.70;11.30;;;7.40;99.90;;;;;;5094183;28;20194;-72
2024/03/02 02:11:58;;;;;;;11.30;9.87;;;7.30;99.90;;;;;;5094203;28;20431;-72
2024/03/02 02:14:24;;;;;;;14.33;10.93;;;7.20;99.90;;;;;;5094243;28;20198;-71
2024/03/02 02:16:50;;;;;;;13.47;11.00;;;7.10;99.90;;;;;;5094144;28;20395;-71
2024/03/02 02:19:15;;;;;;;13.17;10.70;;;7.00;99.90;;;;;;5094124;28;20167;-71
2024/03/02 02:21:44;;;;;;;12.73;10.33;;;7.00;99.90;;;;;;5092548;28;20163;-71
2024/03/02 02:24:10;;;;;;;11.57;10.37;;;6.90;99.90;;;;;;5093749;28;20255;-71
2024/03/02 02:26:36;;;;;;;11.90;10.70;;;7.00;99.90;;;;;;5093939;28;20404;-71
2024/03/02 02:29:02;;;;;;;10.47;9.40;;;6.90;99.90;;;;;;5094080;28;20406;-71
2024/03/02 02:31:39;;;;;;;13.93;12.20;;;6.80;99.90;;;;;;5093911;28;20187;-71
2024/03/02 02:34:06;;;;;;;12.37;10.23;;;6.80;99.90;;;;;;5093641;28;20671;-71
2024/03/02 02:36:37;;;;;;;12.37;10.43;;;6.70;99.90;;;;;;5094034;28;20764;-71
2024/03/02 02:39:04;;;;;;;12.90;10.03;;;6.80;99.90;;;;;;5093815;28;20406;-70
2024/03/02 02:41:30;;;;;;;12.00;10.27;;;6.70;99.90;;;;;;5093827;28;20436;-71
2024/03/02 02:43:56;;;;;;;12.80;11.47;;;6.70;99.90;;;;;;5093713;28;20506;-71
2024/03/02 02:46:22;;;;;;;11.57;10.37;;;6.60;99.90;;;;;;5093708;28;20171;-71
2024/03/02 02:48:48;;;;;;;12.73;10.57;;;6.50;99.90;;;;;;5093667;28;20465;-71
2024/03/02 02:51:13;;;;;;;13.73;10.80;;;6.60;99.90;;;;;;5093861;28;20176;-71
2024/03/02 02:53:41;;;;;;;12.53;10.47;;;6.60;99.90;;;;;;5093346;28;20198;-71
2024/03/02 02:56:07;;;;;;;13.30;10.40;;;6.60;99.90;;;;;;5093542;28;20540;-71
2024/03/02 02:58:33;;;;;;;13.07;10.40;;;6.60;99.90;;;;;;5093215;28;20478;-71
2024/03/02 03:00:58;;;;;;;12.57;9.30;;;6.60;99.90;;;;;;5093070;28;20175;-71
2024/03/02 03:03:24;;;;;;;12.43;10.37;;;6.60;99.90;;;;;;5093318;28;20213;-71
2024/03/02 03:05:50;;;;;;;15.07;11.60;;;6.60;99.90;;;;;;5093163;28;20163;-71
2024/03/02 03:08:18;;;;;;;14.80;10.90;;;6.60;99.90;;;;;;5093130;28;20537;-71
2024/03/02 03:10:44;;;;;;;16.53;11.07;;;6.50;99.90;;;;;;5093482;28;20166;-71
2024/03/02 03:13:10;;;;;;;12.73;10.90;;;6.50;99.90;;;;;;5093054;28;20781;-71
2024/03/02 03:15:39;;;;;;;13.60;11.47;;;6.40;99.90;;;;;;5093031;28;20444;-71
2024/03/02 03:18:05;;;;;;;12.70;10.27;;;6.30;99.90;;;;;;5091756;28;20171;-71
2024/03/02 03:20:31;;;;;;;15.60;11.40;;;6.20;99.90;;;;;;5092677;28;20400;-71
2024/03/02 03:22:59;;;;;;;14.60;11.87;;;6.20;99.90;;;;;;5096469;28;20556;-71
2024/03/02 03:25:25;;;;;;;13.30;11.90;;;6.30;99.90;;;;;;5097475;28;20481;-71
2024/03/02 03:27:53;;;;;;;18.13;13.23;;;6.20;99.90;;;;;;5097385;28;20458;-71
2024/03/02 03:30:19;;;;;;;15.13;11.30;;;6.20;99.90;;;;;;5093748;28;20257;-71
2024/03/02 03:32:45;;;;;;;15.37;11.83;;;6.10;99.90;;;;;;5076983;28;20496;-71
2024/03/02 03:35:12;;;;;;;14.43;11.80;;;6.10;99.90;;;;;;5076702;28;20792;-71
2024/03/02 03:37:37;;;;;;;15.13;11.10;;;6.10;99.90;;;;;;5077023;28;20532;-72
2024/03/02 03:40:09;;;;;;;14.70;11.50;;;6.10;99.90;;;;;;5077891;28;20397;-71
2024/03/02 03:42:35;;;;;;;16.23;12.90;;;6.20;99.90;;;;;;5096451;28;20669;-70
2024/03/02 03:45:01;;;;;;;14.67;11.43;;;6.00;99.90;;;;;;5097078;28;20413;-71
2024/03/02 03:47:27;;;;;;;15.80;13.07;;;6.10;99.90;;;;;;5096554;28;20495;-71
2024/03/02 03:49:52;;;;;;;18.93;13.60;;;6.00;99.90;;;;;;5096602;28;20222;-70
2024/03/02 03:52:18;;;;;;;18.03;13.73;;;6.10;99.90;;;;;;5091508;28;20178;-71
2024/03/02 03:54:44;;;;;;;16.93;13.10;;;5.90;99.90;;;;;;5096823;28;20673;-71
2024/03/02 03:57:10;;;;;;;16.40;12.50;;;6.00;99.90;;;;;;5096477;28;20173;-71
2024/03/02 03:59:37;;;;;;;16.50;13.30;;;6.00;99.90;;;;;;5096563;28;20406;-71
2024/03/02 04:02:03;;;;;;;15.87;11.70;;;6.00;99.90;;;;;;5096445;28;20218;-71
2024/03/02 04:04:28;;;;;;;14.20;12.20;;;6.00;99.90;;;;;;5096453;28;20458;-71
2024/03/02 04:06:54;;;;;;;18.10;13.93;;;6.00;99.90;;;;;;5096380;28;20935;-71
2024/03/02 04:09:20;;;;;;;15.27;12.00;;;6.00;99.90;;;;;;5096282;28;20547;-70
2024/03/02 04:11:45;;;;;;;19.07;13.13;;;6.10;99.90;;;;;;5096248;28;20216;-71
2024/03/02 04:14:12;;;;;;;16.93;13.90;;;6.10;99.90;;;;;;5096373;28;20698;-71
2024/03/02 04:16:38;;;;;;;15.00;11.77;;;6.00;99.90;;;;;;5096183;28;20430;-71
2024/03/02 04:19:04;;;;;;;15.10;12.80;;;6.00;99.90;;;;;;5096626;28;20405;-71
2024/03/02 04:21:30;;;;;;;15.57;12.10;;;6.10;99.90;;;;;;5095951;28;20545;-70
2024/03/02 04:23:59;;;;;;;18.43;14.47;;;6.10;99.90;;;;;;5095940;28;20206;-71
2024/03/02 04:26:25;;;;;;;17.27;12.73;;;6.00;99.90;;;;;;5096451;28;20171;-71
2024/03/02 04:28:51;;;;;;;19.43;15.10;;;6.00;99.90;;;;;;5096261;28;20501;-71
2024/03/02 04:31:17;;;;;;;14.70;13.03;;;5.90;99.90;;;;;;5095894;28;20407;-71
2024/03/02 04:33:43;;;;;;;19.53;13.90;;;5.90;99.90;;;;;;5095082;28;20841;-70
2024/03/02 04:36:11;;;;;;;17.87;14.27;;;5.80;99.90;;;;;;5095834;28;20705;-71
2024/03/02 04:38:38;;;;;;;17.23;12.70;;;5.90;99.90;;;;;;5097086;28;20566;-70
2024/03/02 04:41:06;;;;;;;17.10;14.50;;;5.90;99.90;;;;;;5095974;28;20454;-72
2024/03/02 04:43:33;;;;;;;16.00;12.60;;;5.90;99.90;;;;;;5095666;28;20420;-71
2024/03/02 04:45:59;;;;;;;15.37;11.57;;;5.90;99.90;;;;;;5095624;28;20400;-71
2024/03/02 04:48:25;;;;;;;13.40;11.07;;;5.90;99.90;;;;;;5095897;28;20581;-71
2024/03/02 04:50:50;;;;;;;19.90;14.00;;;6.00;99.90;;;;;;5095707;28;20929;-72
2024/03/02 04:53:16;;;;;;;16.30;12.83;;;6.00;99.90;;;;;;5095372;28;20189;-71
2024/03/02 04:58:07;;;;;;;17.13;13.43;;;5.90;99.90;;;;;;5095454;28;20163;-70
2024/03/02 05:00:33;;;;;;;16.23;13.20;;;5.90;99.90;;;;;;5095566;28;20650;-70
2024/03/02 05:02:59;;;;;;;23.07;12.93;;;5.90;99.90;;;;;;5095222;28;20664;-71
2024/03/02 05:05:24;;;;;;;14.63;11.37;;;5.90;99.90;;;;;;5095492;28;20410;-72
2024/03/02 05:07:50;;;;;;;17.83;13.87;;;5.90;99.90;;;;;;5095142;28;20223;-72
2024/03/02 05:10:16;;;;;;;16.00;11.90;;;5.90;99.90;;;;;;5095031;28;20164;-70
2024/03/02 05:15:07;;;;;;;23.30;13.57;;;6.10;99.90;;;;;;5095466;28;20648;-71
2024/03/02 05:17:37;;;;;;;18.10;13.80;;;6.00;99.90;;;;;;5095344;28;20419;-70
2024/03/02 05:20:04;;;;;;;15.00;12.87;;;5.90;99.90;;;;;;5094968;28;20162;-71
2024/03/02 05:22:30;;;;;;;17.30;13.07;;;6.00;99.90;;;;;;5094579;28;20925;-71
2024/03/02 05:24:56;;;;;;;15.23;12.80;;;6.00;99.90;;;;;;5108253;22;20487;-71
2024/03/02 05:27:21;;;;;;;15.60;13.27;;;6.00;99.90;;;;;;5094435;28;20240;-71
2024/03/02 05:29:47;;;;;;;14.97;12.97;;;5.90;99.90;;;;;;5094426;28;20421;-72
2024/03/02 05:32:13;;;;;;;16.63;13.90;;;5.70;99.90;;;;;;5094144;28;20172;-71
2024/03/02 05:34:38;;;;;;;16.13;13.30;;;5.70;99.90;;;;;;5081094;28;20277;-72
2024/03/02 05:37:04;;;;;;;17.90;12.70;;;5.70;99.90;;;;;;5074213;28;20175;-72
2024/03/02 05:39:29;;;;;;;16.53;12.80;;;5.80;99.90;;;;;;5074350;28;20168;-72
2024/03/02 05:41:55;;;;;;;18.10;13.97;;;5.80;99.90;;;;;;5073297;28;20163;-71
2024/03/02 05:44:21;;;;;;;15.73;12.60;;;5.80;99.90;;;;;;5071603;28;20198;-71
2024/03/02 05:46:47;;;;;;;17.73;14.40;;;5.80;99.90;;;;;;5072365;28;20254;-72
2024/03/02 05:49:13;;;;;;;17.80;12.87;;;5.80;99.90;;;;;;5073753;28;20895;-72
2024/03/02 05:51:38;;;;;;;17.37;13.77;;;5.80;99.90;;;;;;5073809;28;20170;-71
2024/03/02 05:54:04;;;;;;;18.80;14.27;;;5.80;99.90;;;;;;5073614;28;20194;-71
2024/03/02 05:56:30;;;;;;;20.50;13.80;;;5.90;99.90;;;;;;5073752;28;20164;-71
2024/03/02 05:59:13;;;;;;;15.93;12.80;;;5.80;99.90;;;;;;5073630;28;20202;-72
2024/03/02 06:01:43;;;;;;;18.63;13.80;;;5.90;99.90;;;;;;5073557;28;20161;-72
2024/03/02 06:04:10;;;;;;;18.90;13.77;;;5.90;99.90;;;;;;5073568;28;20437;-71
2024/03/02 06:06:36;;;;;;;16.67;12.60;;;5.80;99.90;;;;;;5073766;28;20977;-72
2024/03/02 06:09:07;;;;;;;19.00;14.27;;;5.80;99.90;;;;;;5073368;28;20492;-71
2024/03/02 06:11:38;;;;;;;18.23;13.93;;;5.80;99.90;;;;;;5064071;28;20555;-71
2024/03/02 06:14:05;;;;;;;15.77;13.83;;;5.80;99.90;;;;;;5073166;28;20477;-71
2024/03/02 06:16:30;;;;;;;20.03;14.13;;;5.60;99.90;;;;;;5074574;28;20437;-71
2024/03/02 06:18:57;;;;;;;16.67;12.47;;;5.60;99.90;;;;;;5076107;28;20699;-72
2024/03/02 06:21:23;;;;;;;18.87;15.40;;;5.60;99.90;;;;;;5077174;28;20176;-72
2024/03/02 06:23:49;;;;;;;17.43;14.63;;;5.70;99.90;;;;;;5075840;28;21018;-72
2024/03/02 06:26:15;;;;;;;20.40;15.63;;;5.80;99.90;;;;;;5074536;28;20401;-71
2024/03/02 06:28:40;;;;;;;15.93;12.97;;;5.80;99.90;;;;;;5073698;28;20178;-71
2024/03/02 06:31:06;;;;;;;20.27;14.70;;;5.90;99.90;;;;;;5073460;28;20252;-72
2024/03/02 06:33:31;;;;;;;18.07;14.03;;;6.00;99.90;;;;;;5073368;28;20196;-70
2024/03/02 06:35:57;;;;;;;17.40;12.90;;;6.20;99.90;;;;;;5073048;28;20190;-72
2024/03/02 06:38:22;;;;;;;16.70;13.17;;;6.30;99.90;;;;;;5071819;28;20170;-72
2024/03/02 06:40:48;;;;;;;18.07;14.47;;;6.40;99.90;;;;;;5073590;28;20313;-72
2024/03/02 06:43:13;;;;;;;15.27;12.80;;;6.50;99.90;;;;;;5073298;28;20161;-72
2024/03/02 06:45:39;;;;;;;18.03;14.80;;;6.50;99.90;;;;;;5073401;28;20167;-71
2024/03/02 06:48:05;;;;;;;15.03;12.50;;;6.40;99.90;;;;;;5073047;28;20634;-71
2024/03/02 06:50:31;;;;;;;14.13;12.47;;;6.40;99.90;;;;;;5074409;28;20201;-71
2024/03/02 06:52:57;;;;;;;15.70;11.83;;;6.50;99.90;;;;;;5074348;28;20411;-72
2024/03/02 06:55:24;;;;;;;15.73;13.13;;;6.70;99.90;;;;;;5072573;28;20731;-71
2024/03/02 06:57:50;;;;;;;15.00;12.50;;;6.80;99.90;;;;;;5072957;28;20406;-72
2024/03/02 07:00:17;;;;;;;16.37;13.10;;;6.90;99.90;;;;;;5073273;28;20400;-72
2024/03/02 07:02:44;;;;;;;16.83;13.60;;;6.90;99.90;;;;;;5052775;28;20398;-72
2024/03/02 07:05:11;;;;;;;18.30;14.13;;;7.00;99.90;;;;;;5052847;28;20953;-72
2024/03/02 07:07:37;;;;;;;16.80;12.60;;;7.20;99.90;;;;;;5052628;28;20418;-71
2024/03/02 07:10:04;;;;;;;17.00;13.40;;;7.30;99.90;;;;;;5052721;28;20473;-72
2024/03/02 07:12:29;;;;;;;15.30;13.00;;;7.40;99.90;;;;;;5071169;28;20179;-72
2024/03/02 07:15:11;;;;;;;16.10;12.60;;;7.20;99.90;;;;;;5072422;28;20965;-72
2024/03/02 07:17:37;;;;;;;17.40;13.20;;;7.10;99.90;;;;;;5072567;28;20169;-72
2024/03/02 07:20:03;;;;;;;12.47;10.80;;;7.40;99.90;;;;;;5072556;28;20411;-71
2024/03/02 07:22:29;;;;;;;15.37;12.70;;;7.70;99.90;;;;;;5072401;28;20404;-71
2024/03/02 07:24:55;;;;;;;15.57;13.70;;;7.90;99.90;;;;;;5072996;28;20459;-73
2024/03/02 07:27:21;;;;;;;13.30;10.80;;;8.00;99.90;;;;;;5074150;28;20490;-72
2024/03/02 07:29:46;;;;;;;16.93;13.67;;;8.10;99.90;;;;;;5054464;28;20419;-72
2024/03/02 07:32:12;;;;;;;13.47;11.03;;;8.20;99.90;;;;;;5072320;28;20641;-72
2024/03/02 07:34:38;;;;;;;13.90;11.00;;;8.30;99.90;;;;;;5072434;28;20551;-72
2024/03/02 07:37:04;;;;;;;17.30;13.43;;;8.40;99.90;;;;;;5072491;28;20531;-72
2024/03/02 07:39:30;;;;;;;13.70;11.33;;;8.50;99.90;;;;;;5072518;28;20170;-72
2024/03/02 07:41:55;;;;;;;14.07;11.40;;;8.60;99.90;;;;;;5058522;28;20741;-72
2024/03/02 07:44:21;;;;;;;14.50;12.10;;;8.70;99.90;;;;;;5069966;28;20478;-71
2024/03/02 07:46:51;;;;;;;13.17;10.77;;;8.70;99.90;;;;;;5072628;28;20175;-72
2024/03/02 07:49:20;;;;;;;12.27;10.97;;;8.80;99.90;;;;;;5072259;28;20408;-72
2024/03/02 07:51:45;;;;;;;14.73;12.40;;;8.90;99.90;;;;;;5050752;28;20412;-71
2024/03/02 07:54:11;;;;;;;18.40;12.53;;;8.90;99.90;;;;;;5052027;28;20963;-71
2024/03/02 07:56:37;;;;;;;12.60;11.00;;;8.90;99.90;;;;;;5052284;28;20161;-72
2024/03/02 07:59:03;;;;;;;14.80;12.70;;;8.80;99.90;;;;;;5050796;28;20168;-71
2024/03/02 08:01:32;;;;;;;16.23;12.03;;;8.70;99.90;;;;;;5061127;28;20409;-71
2024/03/02 08:03:58;;;;;;;13.30;11.17;;;8.80;99.90;;;;;;5072000;28;20633;-71
2024/03/02 08:06:27;;;;;;;13.77;12.00;;;8.80;99.90;;;;;;5071943;28;20415;-71
2024/03/02 08:08:57;;;;;;;10.30;9.20;;;8.80;99.90;;;;;;5075119;28;20409;-71
2024/03/02 08:11:22;;;;;;;12.57;11.07;;;8.80;99.90;;;;;;5067416;28;20413;-72
2024/03/02 08:13:48;;;;;;;13.57;10.50;;;8.90;99.90;;;;;;5055511;28;20433;-72
2024/03/02 08:16:15;;;;;;;16.30;10.80;;;9.00;99.90;;;;;;5055475;28;20172;-72
2024/03/02 08:18:42;;;;;;;10.33;8.90;;;9.00;99.90;;;;;;5055915;28;20401;-71
2024/03/02 08:21:08;;;;;;;14.13;11.83;;;9.00;99.90;;;;;;5061311;28;20410;-71
2024/03/02 08:23:34;;;;;;;14.30;10.80;;;8.80;99.90;;;;;;5075085;28;20457;-72
2024/03/02 08:26:00;;;;;;;10.80;9.63;;;8.80;99.90;;;;;;5075511;28;20401;-72
2024/03/02 08:28:25;;;;;;;12.23;10.90;;;8.90;99.90;;;;;;5075238;28;20847;-71
2024/03/02 08:30:51;;;;;;;11.33;9.93;;;9.00;99.90;;;;;;5072147;28;20483;-70
2024/03/02 08:33:16;;;;;;;12.33;9.60;;;9.10;99.90;;;;;;5055374;28;20662;-71
2024/03/02 08:35:42;;;;;;;14.60;10.20;;;9.20;99.90;;;;;;5055096;28;20609;-71
2024/03/02 08:38:08;;;;;;;12.17;10.63;;;9.30;99.90;;;;;;5055144;28;20167;-72
2024/03/02 08:40:33;;;;;;;10.90;9.67;;;9.30;99.90;;;;;;5056139;28;20191;-70
2024/03/02 08:42:59;;;;;;;13.00;9.90;;;9.50;99.90;;;;;;5075342;28;20208;-70
2024/03/02 08:45:24;;;;;;;11.87;9.30;;;9.10;99.90;;;;;;5075051;28;20285;-72
2024/03/02 08:47:50;;;;;;;10.53;8.97;;;9.00;99.90;;;;;;5075287;28;20640;-71
2024/03/02 08:50:15;;;;;;;10.40;8.43;;;9.00;99.90;;;;;;5074928;28;20173;-70
2024/03/02 08:52:42;;;;;;;9.40;7.67;;;8.90;99.90;;;;;;5074821;28;20318;-71
2024/03/02 08:55:08;;;;;;;10.67;8.50;;;9.00;99.90;;;;;;5074604;28;20544;-73
2024/03/02 08:57:34;;;;;;;10.43;8.47;;;9.30;99.90;;;;;;5074813;28;20401;-71
2024/03/02 09:00:00;;;;;;;10.27;9.27;;;9.60;99.90;;;;;;5074910;28;20174;-72
2024/03/02 09:02:25;;;;;;;9.43;8.43;;;9.60;99.90;;;;;;5074750;28;20438;-70
2024/03/02 09:04:51;;;;;;;8.57;7.70;;;9.70;99.90;;;;;;5074331;28;20966;-72
2024/03/02 09:07:17;;;;;;;9.53;8.53;;;9.90;99.90;;;;;;5074474;28;20258;-71
2024/03/02 09:09:42;;;;;;;9.67;8.00;;;9.80;99.90;;;;;;5074659;28;20401;-72
2024/03/02 09:12:08;;;;;;;10.50;7.87;;;9.90;99.90;;;;;;5074572;28;20174;-71
2024/03/02 09:14:35;;;;;;;10.50;8.37;;;10.10;99.90;;;;;;5074263;28;20260;-72
2024/03/02 09:17:00;;;;;;;9.20;8.30;;;10.00;99.90;;;;;;5074552;28;20165;-71
2024/03/02 09:19:26;;;;;;;7.70;7.00;;;10.00;99.90;;;;;;5074202;28;20413;-71
2024/03/02 09:21:51;;;;;;;10.07;7.70;;;10.00;99.90;;;;;;5074154;28;20172;-72
2024/03/02 09:24:17;;;;;;;8.83;7.93;;;10.20;99.90;;;;;;5073787;28;20197;-70
2024/03/02 09:26:42;;;;;;;9.50;7.23;;;10.30;99.90;;;;;;5073686;28;20473;-71
2024/03/02 09:29:08;;;;;;;7.53;6.83;;;10.50;99.90;;;;;;5074076;28;20248;-71
2024/03/02 09:31:40;;;;;;;7.33;6.60;;;10.60;99.90;;;;;;5073957;28;20162;-71
2024/03/02 09:34:05;;;;;;;8.53;7.63;;;10.60;99.90;;;;;;5074166;28;20480;-71
2024/03/02 09:36:31;;;;;;;7.10;6.40;;;10.80;99.90;;;;;;5073905;28;20486;-71
2024/03/02 09:38:56;;;;;;;7.67;6.87;;;11.00;99.90;;;;;;5073824;28;20277;-71
2024/03/02 09:41:22;;;;;;;6.70;5.80;;;10.90;99.90;;;;;;5066360;28;20253;-70
2024/03/02 09:43:48;;;;;;;7.37;6.20;;;10.70;99.90;;;;;;5054025;28;20585;-71
2024/03/02 09:46:15;;;;;;;6.60;6.00;;;10.90;99.90;;;;;;5054236;28;20225;-71
2024/03/02 09:48:40;;;;;;;7.00;6.30;;;11.10;99.90;;;;;;5054338;28;20901;-69
2024/03/02 09:51:06;;;;;;;7.27;6.50;;;11.50;99.90;;;;;;5071828;28;20402;-71
2024/03/02 09:53:33;;;;;;;6.53;5.83;;;11.70;99.90;;;;;;5073785;28;20655;-71
2024/03/02 09:56:01;;;;;;;6.07;5.47;;;11.70;99.90;;;;;;5074092;28;20977;-71
2024/03/02 09:58:28;;;;;;;6.30;5.70;;;11.70;99.90;;;;;;5073850;28;20451;-70
2024/03/02 10:00:53;;;;;;;5.80;5.27;;;11.90;99.90;;;;;;5073920;28;20402;-71
2024/03/02 10:03:19;;;;;;;6.43;5.83;;;11.80;99.90;;;;;;5073435;28;20399;-70
2024/03/02 10:05:45;;;;;;;6.37;5.77;;;12.00;99.90;;;;;;5073603;28;20214;-71
2024/03/02 10:08:10;;;;;;;6.43;5.83;;;12.20;99.90;;;;;;5073576;28;20172;-71
2024/03/02 10:10:41;;;;;;;6.80;6.10;;;12.30;99.90;;;;;;5074203;28;20207;-69
2024/03/02 10:13:09;;;;;;;6.30;5.70;;;12.30;99.90;;;;;;5053735;28;20163;-71
2024/03/02 10:15:37;;;;;;;6.33;5.73;;;12.50;99.90;;;;;;5053554;28;20571;-72
2024/03/02 10:18:03;;;;;;;5.57;5.13;;;12.80;99.90;;;;;;5053724;28;20402;-72
2024/03/02 10:20:29;;;;;;;7.07;5.80;;;12.90;99.90;;;;;;5053505;28;20459;-72
2024/03/02 10:23:18;;;;;;;6.10;5.50;;;12.90;99.90;;;;;;5072166;28;20407;-71
2024/03/02 10:25:45;;;;;;;6.13;4.60;;;13.10;99.90;;;;;;5073355;28;20162;-71
2024/03/02 10:28:10;;;;;;;7.77;5.37;;;13.20;99.90;;;;;;5073477;28;20403;-71
2024/03/02 10:30:36;;;;;;;6.17;5.57;;;13.30;99.90;;;;;;5072710;28;20946;-72
2024/03/02 10:33:02;;;;;;;7.50;4.90;;;13.40;99.90;;;;;;5072625;28;20629;-72
2024/03/02 10:35:28;;;;;;;6.60;5.97;;;13.40;99.90;;;;;;5073082;28;20216;-72
2024/03/02 10:37:54;;;;;;;5.10;4.60;;;13.60;99.90;;;;;;5072713;28;20909;-71
2024/03/02 10:40:23;;;;;;;5.80;5.20;;;13.70;99.90;;;;;;5072903;28;20636;-72
2024/03/02 10:42:51;;;;;;;5.77;5.27;;;13.80;99.90;;;;;;5073013;28;20212;-71
2024/03/02 10:45:16;;;;;;;4.90;4.50;;;13.70;99.90;;;;;;5072745;28;20485;-72
2024/03/02 10:47:43;;;;;;;4.87;4.47;;;13.60;99.90;;;;;;5073469;28;20895;-73
2024/03/02 10:50:09;;;;;;;5.33;4.83;;;13.70;99.90;;;;;;5072893;28;20632;-71
2024/03/02 10:52:35;;;;;;;5.00;4.60;;;14.00;99.90;;;;;;5073447;28;20438;-71
2024/03/02 10:55:05;;;;;;;4.83;4.27;;;14.20;99.90;;;;;;5073031;28;20215;-72
2024/03/02 10:57:39;;;;;;;5.67;5.17;;;14.20;99.90;;;;;;5072675;28;20437;-73
2024/03/02 11:00:14;;;;;;;7.10;5.97;;;14.30;99.90;;;;;;5054710;28;20927;-72
2024/03/02 11:02:42;;;;;;;5.17;4.67;;;14.30;99.90;;;;;;5072956;28;20415;-72
2024/03/02 11:05:10;;;;;;;4.90;4.40;;;14.20;99.90;;;;;;5073470;28;20439;-73
2024/03/02 11:07:38;;;;;;;4.93;4.23;;;14.20;99.90;;;;;;5073836;28;20437;-72
2024/03/02 11:10:08;;;;;;;5.73;5.10;;;14.20;99.90;;;;;;5072975;28;20950;-73
2024/03/02 11:12:43;;;;;;;4.97;4.57;;;14.30;99.90;;;;;;5072710;28;20407;-73
2024/03/02 11:15:18;;;;;;;4.60;4.20;;;14.40;99.90;;;;;;5072672;28;20545;-72
2024/03/02 11:17:46;;;;;;;4.40;3.70;;;14.40;99.90;;;;;;5072768;28;20514;-72
2024/03/02 11:20:11;;;;;;;4.10;3.70;;;14.80;99.90;;;;;;5072388;28;20414;-72
2024/03/02 11:22:37;;;;;;;4.60;3.70;;;15.10;99.90;;;;;;5072216;28;20411;-72
2024/03/02 11:25:03;;;;;;;3.30;3.00;;;15.70;99.90;;;;;;5097894;23;20263;-71
2024/03/02 11:27:51;;;;;;;2.93;2.70;;;16.90;99.80;;;;;;5092603;28;20451;-72
2024/03/02 11:30:31;;;;;;;2.30;2.10;;;18.70;95.80;;;;;;5092945;28;20544;-72
2024/03/02 11:33:06;;;;;;;3.23;2.30;;;20.10;93.40;;;;;;5092733;28;20407;-72
2024/03/02 11:35:31;;;;;;;2.27;2.07;;;20.80;88.90;;;;;;5092353;28;20442;-72
2024/03/02 11:38:00;;;;;;;1.77;1.57;;;21.00;85.70;;;;;;5092882;28;20420;-72
2024/03/02 11:40:25;;;;;;;1.40;1.10;;;20.90;83.70;;;;;;5092722;28;20666;-71
2024/03/02 11:42:52;;;;;;;2.80;1.53;;;20.90;83.20;;;;;;5094554;28;20430;-72
2024/03/02 11:45:22;;;;;;;2.10;1.60;;;21.90;79.10;;;;;;5097019;28;20189;-72
2024/03/02 11:47:53;;;;;;;1.20;1.10;;;21.70;76.90;;;;;;5084401;28;20491;-71
2024/03/02 11:50:37;;;;;;;1.10;0.80;;;22.60;76.30;;;;;;5077140;28;20411;-72
2024/03/02 11:53:08;;;;;;;0.93;0.60;;;22.40;71.90;;;;;;5095506;28;20391;-71
2024/03/02 11:55:37;;;;;;;1.70;0.90;;;22.20;69.00;;;;;;5095098;28;20450;-72
2024/03/02 11:58:04;;;;;;;0.90;0.70;;;22.80;68.80;;;;;;5097185;28;20814;-71
2024/03/02 12:00:30;;;;;;;0.93;0.70;;;23.60;69.20;;;;;;5097296;28;20932;-71
2024/03/02 12:03:04;;;;;;;1.00;0.70;;;24.20;66.10;;;;;;5096671;28;20404;-71
2024/03/02 12:05:30;;;;;;;0.93;0.80;;;23.30;62.70;;;;;;5096447;28;20459;-71
2024/03/02 12:08:00;;;;;;;1.10;0.83;;;22.30;65.80;;;;;;5097004;28;20409;-71
2024/03/02 12:10:27;;;;;;;1.50;1.30;;;22.00;65.20;;;;;;5096368;28;20889;-72
2024/03/02 12:13:00;;;;;;;3.10;1.00;;;22.00;67.50;;;;;;5096578;28;20802;-71
2024/03/02 12:15:27;;;;;;;1.47;1.37;;;22.50;68.20;;;;;;5097579;28;20451;-70
2024/03/02 12:17:57;;;;;;;2.10;1.60;;;22.90;67.50;;;;;;5097561;28;20460;-71
2024/03/02 12:20:24;;;;;;;2.60;1.57;;;23.60;65.70;;;;;;5097153;28;20917;-71
2024/03/02 12:22:54;;;;;;;1.60;1.10;;;23.70;64.70;;;;;;5096494;28;20435;-71
2024/03/02 12:25:21;;;;;;;0.90;0.70;;;23.40;63.00;;;;;;5095660;28;20455;-70
2024/03/02 12:27:51;;;;;;;1.20;0.93;;;23.00;63.40;;;;;;5096205;28;20407;-70
2024/03/02 12:30:18;;;;;;;1.60;0.87;;;22.80;64.60;;;;;;5096618;28;20391;-69
2024/03/02 12:32:45;;;;;;;1.10;0.90;;;23.10;63.30;;;;;;5096259;28;20411;-69
2024/03/02 12:35:14;;;;;;;1.17;1.07;;;23.80;62.20;;;;;;5096290;28;20450;-69
2024/03/02 12:37:50;;;;;;;1.40;1.13;;;24.30;61.70;;;;;;5096675;28;20395;-68
2024/03/02 12:40:18;;;;;;;1.30;1.20;;;24.10;59.00;;;;;;5096091;28;20946;-68
2024/03/02 12:42:45;;;;;;;1.73;1.20;;;24.40;58.60;;;;;;5096014;28;20456;-70
2024/03/02 12:45:11;;;;;;;1.80;1.10;;;24.80;58.90;;;;;;5095549;28;20469;-69